sensor_id;sensor_type;location;lat;lon;timestamp;pressure;altitude;pressure_sealevel;temperature;humidity
12197;BME280;6161;43.014;25.840;2022-09-01T00:02:12;99466.28;;;24.15;nan
12197;BME280;6161;43.014;25.840;2022-09-01T00:04:42;99499.38;;;24.02;nan
12197;BME280;6161;43.014;25.840;2022-09-01T00:07:09;99460.66;;;24.10;nan
12197;BME280;6161;43.014;25.840;2022-09-01T00:09:34;99474.81;;;24.07;nan
12197;BME280;6161;43.014;25.840;2022-09-01T00:12:01;99463.88;;;23.83;nan
12197;BME280;6161;43.014;25.840;2022-09-01T00:14:29;99515.22;;;23.88;nan
12197;BME280;6161;43.014;25.840;2022-09-01T00:16:57;99548.66;;;23.78;nan
12197;BME280;6161;43.014;25.840;2022-09-01T00:19:23;99454.13;;;23.76;nan
12197;BME280;6161;43.014;25.840;2022-09-01T00:21:49;99463.22;;;23.70;nan
12197;BME280;6161;43.014;25.840;2022-09-01T00:24:16;99486.91;;;23.64;nan
12197;BME280;6161;43.014;25.840;2022-09-01T00:26:43;99480.06;;;23.73;nan
12197;BME280;6161;43.014;25.840;2022-09-01T00:29:08;99487.19;;;23.74;nan
12197;BME280;6161;43.014;25.840;2022-09-01T00:31:34;99506.47;;;23.68;nan
12197;BME280;6161;43.014;25.840;2022-09-01T00:34:00;99440.13;;;23.54;nan
12197;BME280;6161;43.014;25.840;2022-09-01T00:36:26;99485.59;;;23.55;nan
12197;BME280;6161;43.014;25.840;2022-09-01T00:38:53;99470.09;;;23.49;nan
12197;BME280;6161;43.014;25.840;2022-09-01T00:41:21;99453.44;;;23.38;nan
12197;BME280;6161;43.014;25.840;2022-09-01T00:43:53;99491.06;;;23.55;nan
12197;BME280;6161;43.014;25.840;2022-09-01T00:46:23;99507.34;;;23.50;nan
12197;BME280;6161;43.014;25.840;2022-09-01T00:49:10;99493.94;;;23.60;nan
12197;BME280;6161;43.014;25.840;2022-09-01T00:51:37;99478.56;;;23.59;nan
12197;BME280;6161;43.014;25.840;2022-09-01T00:54:06;99467.72;;;23.52;nan
12197;BME280;6161;43.014;25.840;2022-09-01T00:58:58;99473.09;;;23.59;nan
12197;BME280;6161;43.014;25.840;2022-09-01T01:01:26;99533.44;;;23.52;nan
12197;BME280;6161;43.014;25.840;2022-09-01T01:11:14;99480.59;;;23.52;nan
12197;BME280;6161;43.014;25.840;2022-09-01T01:16:17;99447.47;;;23.41;nan
12197;BME280;6161;43.014;25.840;2022-09-01T01:18:43;99470.47;;;23.40;nan
12197;BME280;6161;43.014;25.840;2022-09-01T01:21:17;99465.69;;;23.36;nan
12197;BME280;6161;43.014;25.840;2022-09-01T01:26:42;99455.53;;;23.25;nan
12197;BME280;6161;43.014;25.840;2022-09-01T01:29:09;99439.09;;;23.25;nan
12197;BME280;6161;43.014;25.840;2022-09-01T01:31:34;99475.75;;;23.24;nan
12197;BME280;6161;43.014;25.840;2022-09-01T01:36:32;99484.78;;;22.94;nan
12197;BME280;6161;43.014;25.840;2022-09-01T01:39:08;99526.63;;;22.94;nan
12197;BME280;6161;43.014;25.840;2022-09-01T01:41:35;99477.69;;;23.05;nan
12197;BME280;6161;43.014;25.840;2022-09-01T01:44:07;99484.00;;;23.05;nan
12197;BME280;6161;43.014;25.840;2022-09-01T01:48:59;99409.56;;;23.03;nan
12197;BME280;6161;43.014;25.840;2022-09-01T01:51:27;99397.41;;;22.99;nan
12197;BME280;6161;43.014;25.840;2022-09-01T01:53:56;99476.41;;;23.07;nan
12197;BME280;6161;43.014;25.840;2022-09-01T01:56:26;99467.16;;;23.08;nan
12197;BME280;6161;43.014;25.840;2022-09-01T01:58:53;99478.31;;;23.07;nan
12197;BME280;6161;43.014;25.840;2022-09-01T02:06:21;99471.47;;;22.97;nan
12197;BME280;6161;43.014;25.840;2022-09-01T02:11:14;99468.69;;;22.86;nan
12197;BME280;6161;43.014;25.840;2022-09-01T02:13:41;99481.22;;;22.93;nan
12197;BME280;6161;43.014;25.840;2022-09-01T02:18:40;99491.16;;;22.88;nan
12197;BME280;6161;43.014;25.840;2022-09-01T02:21:08;99496.03;;;22.86;nan
12197;BME280;6161;43.014;25.840;2022-09-01T02:23:37;99456.88;;;22.85;nan
12197;BME280;6161;43.014;25.840;2022-09-01T02:26:03;99458.78;;;22.85;nan
12197;BME280;6161;43.014;25.840;2022-09-01T02:28:33;99494.81;;;22.82;nan
12197;BME280;6161;43.014;25.840;2022-09-01T02:31:02;99457.81;;;22.79;nan
12197;BME280;6161;43.014;25.840;2022-09-01T02:33:31;99454.66;;;22.64;nan
12197;BME280;6161;43.014;25.840;2022-09-01T02:36:00;99478.13;;;22.71;nan
12197;BME280;6161;43.014;25.840;2022-09-01T02:38:27;99462.53;;;22.72;nan
12197;BME280;6161;43.014;25.840;2022-09-01T02:40:57;99465.19;;;22.60;nan
12197;BME280;6161;43.014;25.840;2022-09-01T02:43:24;99471.59;;;22.54;nan
12197;BME280;6161;43.014;25.840;2022-09-01T02:45:54;99473.19;;;22.43;nan
12197;BME280;6161;43.014;25.840;2022-09-01T02:48:26;99488.22;;;22.52;nan
12197;BME280;6161;43.014;25.840;2022-09-01T02:50:53;99486.47;;;22.40;nan
12197;BME280;6161;43.014;25.840;2022-09-01T02:53:21;99481.84;;;22.40;nan
12197;BME280;6161;43.014;25.840;2022-09-01T02:58:12;99456.44;;;22.14;nan
12197;BME280;6161;43.014;25.840;2022-09-01T03:00:43;99433.50;;;22.22;nan
12197;BME280;6161;43.014;25.840;2022-09-01T03:05:37;99461.44;;;22.24;nan
12197;BME280;6161;43.014;25.840;2022-09-01T03:08:09;99458.91;;;22.23;nan
12197;BME280;6161;43.014;25.840;2022-09-01T03:10:37;99482.38;;;22.05;nan
12197;BME280;6161;43.014;25.840;2022-09-01T03:13:17;99485.78;;;22.01;nan
12197;BME280;6161;43.014;25.840;2022-09-01T03:15:43;99432.69;;;21.97;nan
12197;BME280;6161;43.014;25.840;2022-09-01T03:18:10;99477.16;;;22.04;nan
12197;BME280;6161;43.014;25.840;2022-09-01T03:20:39;99476.38;;;21.97;nan
12197;BME280;6161;43.014;25.840;2022-09-01T03:23:10;99414.72;;;21.89;nan
12197;BME280;6161;43.014;25.840;2022-09-01T03:25:42;99506.97;;;22.05;nan
12197;BME280;6161;43.014;25.840;2022-09-01T03:28:07;99558.25;;;22.03;nan
12197;BME280;6161;43.014;25.840;2022-09-01T03:30:35;99466.00;;;22.05;nan
12197;BME280;6161;43.014;25.840;2022-09-01T03:33:06;99451.50;;;22.05;nan
12197;BME280;6161;43.014;25.840;2022-09-01T03:35:33;99476.63;;;22.13;nan
12197;BME280;6161;43.014;25.840;2022-09-01T03:37:59;99491.50;;;22.18;nan
12197;BME280;6161;43.014;25.840;2022-09-01T03:40:28;99509.78;;;22.17;nan
12197;BME280;6161;43.014;25.840;2022-09-01T03:43:03;99461.09;;;22.14;nan
12197;BME280;6161;43.014;25.840;2022-09-01T03:45:33;99445.22;;;22.04;nan
12197;BME280;6161;43.014;25.840;2022-09-01T03:50:35;99472.75;;;22.03;nan
12197;BME280;6161;43.014;25.840;2022-09-01T03:53:07;99457.44;;;22.02;nan
12197;BME280;6161;43.014;25.840;2022-09-01T03:55:35;99479.28;;;22.02;nan
12197;BME280;6161;43.014;25.840;2022-09-01T03:58:07;99457.47;;;21.95;nan
12197;BME280;6161;43.014;25.840;2022-09-01T04:00:38;99457.47;;;21.95;nan
12197;BME280;6161;43.014;25.840;2022-09-01T04:03:06;99474.69;;;21.96;nan
12197;BME280;6161;43.014;25.840;2022-09-01T04:05:34;99510.50;;;21.87;nan
12197;BME280;6161;43.014;25.840;2022-09-01T04:08:05;99474.00;;;21.82;nan
12197;BME280;6161;43.014;25.840;2022-09-01T04:10:33;99497.13;;;21.79;nan
12197;BME280;6161;43.014;25.840;2022-09-01T04:13:00;99488.69;;;21.81;nan
12197;BME280;6161;43.014;25.840;2022-09-01T04:15:30;99520.25;;;21.77;nan
12197;BME280;6161;43.014;25.840;2022-09-01T04:17:57;99467.63;;;21.63;nan
12197;BME280;6161;43.014;25.840;2022-09-01T04:20:39;99469.41;;;21.76;nan
12197;BME280;6161;43.014;25.840;2022-09-01T04:23:19;99460.56;;;21.80;nan
12197;BME280;6161;43.014;25.840;2022-09-01T04:26:00;99511.09;;;21.89;nan
12197;BME280;6161;43.014;25.840;2022-09-01T04:28:35;99453.69;;;21.96;nan
12197;BME280;6161;43.014;25.840;2022-09-01T04:31:04;99519.16;;;22.03;nan
12197;BME280;6161;43.014;25.840;2022-09-01T04:33:36;99483.81;;;22.08;nan
12197;BME280;6161;43.014;25.840;2022-09-01T04:36:24;99493.88;;;22.14;nan
12197;BME280;6161;43.014;25.840;2022-09-01T04:39:01;99506.44;;;22.22;nan
12197;BME280;6161;43.014;25.840;2022-09-01T04:41:37;99513.94;;;22.26;nan
12197;BME280;6161;43.014;25.840;2022-09-01T04:44:05;99472.88;;;22.33;nan
12197;BME280;6161;43.014;25.840;2022-09-01T04:49:02;99479.72;;;22.42;nan
12197;BME280;6161;43.014;25.840;2022-09-01T04:53:57;99485.34;;;22.47;nan
12197;BME280;6161;43.014;25.840;2022-09-01T04:58:52;99500.81;;;22.35;nan
12197;BME280;6161;43.014;25.840;2022-09-01T05:01:25;99444.09;;;22.30;nan
12197;BME280;6161;43.014;25.840;2022-09-01T05:03:52;99443.44;;;22.35;nan
12197;BME280;6161;43.014;25.840;2022-09-01T05:06:28;99492.78;;;22.40;nan
12197;BME280;6161;43.014;25.840;2022-09-01T05:08:54;99464.28;;;22.48;nan
12197;BME280;6161;43.014;25.840;2022-09-01T05:11:24;99497.53;;;22.63;nan
12197;BME280;6161;43.014;25.840;2022-09-01T05:13:50;99499.53;;;22.74;nan
12197;BME280;6161;43.014;25.840;2022-09-01T05:16:20;99467.81;;;22.85;nan
12197;BME280;6161;43.014;25.840;2022-09-01T05:18:50;99485.16;;;22.97;nan
12197;BME280;6161;43.014;25.840;2022-09-01T05:21:18;99502.47;;;23.10;nan
12197;BME280;6161;43.014;25.840;2022-09-01T05:23:46;99482.88;;;23.25;nan
12197;BME280;6161;43.014;25.840;2022-09-01T05:26:18;99467.94;;;23.39;nan
12197;BME280;6161;43.014;25.840;2022-09-01T05:28:48;99507.13;;;23.51;nan
12197;BME280;6161;43.014;25.840;2022-09-01T05:31:14;99498.25;;;23.68;nan
12197;BME280;6161;43.014;25.840;2022-09-01T05:33:47;99508.19;;;23.80;nan
12197;BME280;6161;43.014;25.840;2022-09-01T05:36:16;99582.75;;;23.94;nan
12197;BME280;6161;43.014;25.840;2022-09-01T05:38:43;99502.38;;;24.00;nan
12197;BME280;6161;43.014;25.840;2022-09-01T05:41:11;99494.13;;;24.12;nan
12197;BME280;6161;43.014;25.840;2022-09-01T05:43:43;99466.59;;;24.19;nan
12197;BME280;6161;43.014;25.840;2022-09-01T05:51:09;99494.50;;;24.51;nan
12197;BME280;6161;43.014;25.840;2022-09-01T05:53:35;99482.09;;;24.48;nan
12197;BME280;6161;43.014;25.840;2022-09-01T05:56:06;99512.97;;;24.56;nan
12197;BME280;6161;43.014;25.840;2022-09-01T05:58:34;99514.13;;;24.71;nan
12197;BME280;6161;43.014;25.840;2022-09-01T06:01:00;99516.00;;;24.83;nan
12197;BME280;6161;43.014;25.840;2022-09-01T06:03:26;99505.09;;;25.00;nan
12197;BME280;6161;43.014;25.840;2022-09-01T06:05:54;99506.63;;;25.07;nan
12197;BME280;6161;43.014;25.840;2022-09-01T06:08:24;99503.84;;;25.19;nan
12197;BME280;6161;43.014;25.840;2022-09-01T06:10:50;99489.97;;;25.26;nan
12197;BME280;6161;43.014;25.840;2022-09-01T06:13:18;99501.06;;;25.31;nan
12197;BME280;6161;43.014;25.840;2022-09-01T06:18:11;99511.09;;;25.54;nan
12197;BME280;6161;43.014;25.840;2022-09-01T06:20:39;99518.75;;;25.69;nan
12197;BME280;6161;43.014;25.840;2022-09-01T06:25:31;99510.97;;;26.11;nan
12197;BME280;6161;43.014;25.840;2022-09-01T06:27:57;99496.94;;;26.30;nan
12197;BME280;6161;43.014;25.840;2022-09-01T06:30:25;99527.59;;;26.38;nan
12197;BME280;6161;43.014;25.840;2022-09-01T06:32:54;99513.59;;;26.23;nan
12197;BME280;6161;43.014;25.840;2022-09-01T06:35:21;99503.13;;;25.86;nan
12197;BME280;6161;43.014;25.840;2022-09-01T06:37:49;99508.19;;;25.77;nan
12197;BME280;6161;43.014;25.840;2022-09-01T06:42:45;99484.81;;;26.09;nan
12197;BME280;6161;43.014;25.840;2022-09-01T06:45:13;99521.63;;;26.25;nan
12197;BME280;6161;43.014;25.840;2022-09-01T06:47:40;99498.09;;;26.34;nan
12197;BME280;6161;43.014;25.840;2022-09-01T06:50:09;99488.72;;;26.52;nan
12197;BME280;6161;43.014;25.840;2022-09-01T06:52:38;99519.09;;;26.57;nan
12197;BME280;6161;43.014;25.840;2022-09-01T06:55:05;99469.28;;;26.80;nan
12197;BME280;6161;43.014;25.840;2022-09-01T06:57:31;99493.78;;;27.04;nan
12197;BME280;6161;43.014;25.840;2022-09-01T06:59:56;99500.66;;;27.23;nan
12197;BME280;6161;43.014;25.840;2022-09-01T07:02:22;99512.66;;;27.17;nan
12197;BME280;6161;43.014;25.840;2022-09-01T07:04:49;99501.28;;;27.31;nan
12197;BME280;6161;43.014;25.840;2022-09-01T07:07:16;99511.09;;;27.48;nan
12197;BME280;6161;43.014;25.840;2022-09-01T07:09:41;99516.94;;;27.57;nan
12197;BME280;6161;43.014;25.840;2022-09-01T07:12:08;99487.03;;;27.39;nan
12197;BME280;6161;43.014;25.840;2022-09-01T07:14:37;99486.84;;;27.45;nan
12197;BME280;6161;43.014;25.840;2022-09-01T07:17:06;99517.03;;;27.67;nan
12197;BME280;6161;43.014;25.840;2022-09-01T07:19:31;99510.44;;;27.68;nan
12197;BME280;6161;43.014;25.840;2022-09-01T07:21:58;99523.41;;;27.68;nan
12197;BME280;6161;43.014;25.840;2022-09-01T07:24:24;99509.13;;;27.76;nan
12197;BME280;6161;43.014;25.840;2022-09-01T07:26:50;99483.22;;;27.77;nan
12197;BME280;6161;43.014;25.840;2022-09-01T07:29:16;99508.22;;;27.92;nan
12197;BME280;6161;43.014;25.840;2022-09-01T07:31:46;99487.84;;;27.99;nan
12197;BME280;6161;43.014;25.840;2022-09-01T07:36:42;99508.22;;;28.35;nan
12197;BME280;6161;43.014;25.840;2022-09-01T07:39:10;99497.03;;;28.52;nan
12197;BME280;6161;43.014;25.840;2022-09-01T07:41:36;99477.63;;;28.42;nan
12197;BME280;6161;43.014;25.840;2022-09-01T07:44:03;99570.25;;;28.27;nan
12197;BME280;6161;43.014;25.840;2022-09-01T07:46:30;99510.66;;;28.31;nan
12197;BME280;6161;43.014;25.840;2022-09-01T07:49:00;99548.94;;;28.55;nan
12197;BME280;6161;43.014;25.840;2022-09-01T07:51:27;99472.00;;;28.74;nan
12197;BME280;6161;43.014;25.840;2022-09-01T07:53:53;99519.28;;;28.88;nan
12197;BME280;6161;43.014;25.840;2022-09-01T07:56:21;99503.50;;;28.78;nan
12197;BME280;6161;43.014;25.840;2022-09-01T07:58:49;99509.84;;;28.78;nan
12197;BME280;6161;43.014;25.840;2022-09-01T08:01:18;99494.63;;;28.71;nan
12197;BME280;6161;43.014;25.840;2022-09-01T08:03:46;99504.63;;;28.82;nan
12197;BME280;6161;43.014;25.840;2022-09-01T08:06:14;99493.91;;;28.96;nan
12197;BME280;6161;43.014;25.840;2022-09-01T08:08:44;99501.09;;;28.97;nan
12197;BME280;6161;43.014;25.840;2022-09-01T08:11:15;99487.38;;;29.12;nan
12197;BME280;6161;43.014;25.840;2022-09-01T08:16:06;99501.75;;;29.19;nan
12197;BME280;6161;43.014;25.840;2022-09-01T08:18:33;99479.66;;;29.30;nan
12197;BME280;6161;43.014;25.840;2022-09-01T08:20:59;99472.47;;;29.24;nan
12197;BME280;6161;43.014;25.840;2022-09-01T08:23:24;99477.16;;;29.28;nan
12197;BME280;6161;43.014;25.840;2022-09-01T08:25:52;99486.84;;;29.41;nan
12197;BME280;6161;43.014;25.840;2022-09-01T08:28:18;99484.09;;;29.41;nan
12197;BME280;6161;43.014;25.840;2022-09-01T08:30:45;99469.69;;;29.29;nan
12197;BME280;6161;43.014;25.840;2022-09-01T08:33:13;99473.53;;;29.07;nan
12197;BME280;6161;43.014;25.840;2022-09-01T08:35:43;99466.09;;;29.23;nan
12197;BME280;6161;43.014;25.840;2022-09-01T08:38:10;99447.59;;;29.39;nan
12197;BME280;6161;43.014;25.840;2022-09-01T08:40:36;99457.00;;;29.38;nan
12197;BME280;6161;43.014;25.840;2022-09-01T08:43:08;99452.53;;;29.11;nan
12197;BME280;6161;43.014;25.840;2022-09-01T08:45:47;99454.78;;;29.25;nan
12197;BME280;6161;43.014;25.840;2022-09-01T08:50:48;99474.72;;;29.57;nan
12197;BME280;6161;43.014;25.840;2022-09-01T08:53:35;99447.41;;;29.76;nan
12197;BME280;6161;43.014;25.840;2022-09-01T08:56:08;99430.50;;;29.78;nan
12197;BME280;6161;43.014;25.840;2022-09-01T08:58:35;99465.88;;;30.01;nan
12197;BME280;6161;43.014;25.840;2022-09-01T09:01:13;99459.50;;;30.32;nan
12197;BME280;6161;43.014;25.840;2022-09-01T09:16:47;99436.56;;;30.91;nan
12197;BME280;6161;43.014;25.840;2022-09-01T09:19:34;99418.81;;;30.92;nan
12197;BME280;6161;43.014;25.840;2022-09-01T09:22:03;99400.56;;;30.91;nan
12197;BME280;6161;43.014;25.840;2022-09-01T09:24:52;99433.41;;;30.48;nan
12197;BME280;6161;43.014;25.840;2022-09-01T09:27:28;99415.91;;;30.58;nan
12197;BME280;6161;43.014;25.840;2022-09-01T09:29:59;99416.09;;;30.82;nan
12197;BME280;6161;43.014;25.840;2022-09-01T09:35:19;99394.19;;;30.80;nan
12197;BME280;6161;43.014;25.840;2022-09-01T09:40:22;99395.41;;;31.14;nan
12197;BME280;6161;43.014;25.840;2022-09-01T09:45:39;99408.06;;;31.25;nan
12197;BME280;6161;43.014;25.840;2022-09-01T09:48:26;99388.19;;;31.52;nan
12197;BME280;6161;43.014;25.840;2022-09-01T09:50:52;99364.09;;;31.76;nan
12197;BME280;6161;43.014;25.840;2022-09-01T09:53:35;99385.75;;;31.74;nan
12197;BME280;6161;43.014;25.840;2022-09-01T09:58:39;99363.09;;;31.67;nan
12197;BME280;6161;43.014;25.840;2022-09-01T10:03:46;99376.28;;;31.51;nan
12197;BME280;6161;43.014;25.840;2022-09-01T10:06:35;99371.81;;;31.56;nan
12197;BME280;6161;43.014;25.840;2022-09-01T10:09:05;99371.13;;;31.69;nan
12197;BME280;6161;43.014;25.840;2022-09-01T10:11:40;99367.09;;;31.85;nan
12197;BME280;6161;43.014;25.840;2022-09-01T10:14:16;99349.59;;;31.85;nan
12197;BME280;6161;43.014;25.840;2022-09-01T10:16:46;99354.09;;;31.81;nan
12197;BME280;6161;43.014;25.840;2022-09-01T10:19:15;99347.53;;;31.71;nan
12197;BME280;6161;43.014;25.840;2022-09-01T10:21:43;99355.78;;;31.76;nan
12197;BME280;6161;43.014;25.840;2022-09-01T10:24:17;99344.53;;;31.92;nan
12197;BME280;6161;43.014;25.840;2022-09-01T10:26:45;99339.94;;;32.06;nan
12197;BME280;6161;43.014;25.840;2022-09-01T10:29:36;99330.78;;;31.82;nan
12197;BME280;6161;43.014;25.840;2022-09-01T10:32:12;99343.53;;;32.07;nan
12197;BME280;6161;43.014;25.840;2022-09-01T10:34:41;99345.63;;;32.20;nan
12197;BME280;6161;43.014;25.840;2022-09-01T10:37:07;99344.53;;;32.40;nan
12197;BME280;6161;43.014;25.840;2022-09-01T10:39:33;99348.88;;;32.46;nan
12197;BME280;6161;43.014;25.840;2022-09-01T10:42:00;99338.47;;;32.57;nan
12197;BME280;6161;43.014;25.840;2022-09-01T10:44:37;99312.97;;;32.74;nan
12197;BME280;6161;43.014;25.840;2022-09-01T10:55:17;99308.66;;;32.81;nan
12197;BME280;6161;43.014;25.840;2022-09-01T11:11:38;99302.00;;;32.82;nan
12197;BME280;6161;43.014;25.840;2022-09-01T11:14:00;99294.03;;;32.95;nan
12197;BME280;6161;43.014;25.840;2022-09-01T11:16:38;99292.06;;;32.95;nan
12197;BME280;6161;43.014;25.840;2022-09-01T11:21:46;99291.53;;;32.93;nan
12197;BME280;6161;43.014;25.840;2022-09-01T11:30:20;99275.91;;;32.65;nan
12197;BME280;6161;43.014;25.840;2022-09-01T11:32:50;99268.53;;;32.55;nan
12197;BME280;6161;43.014;25.840;2022-09-01T11:35:23;99269.66;;;32.54;nan
12197;BME280;6161;43.014;25.840;2022-09-01T11:37:52;99293.06;;;32.48;nan
12197;BME280;6161;43.014;25.840;2022-09-01T11:40:28;99248.53;;;32.72;nan
12197;BME280;6161;43.014;25.840;2022-09-01T11:42:55;99259.50;;;32.82;nan
12197;BME280;6161;43.014;25.840;2022-09-01T11:45:28;99267.84;;;32.82;nan
12197;BME280;6161;43.014;25.840;2022-09-01T11:48:01;99253.78;;;32.92;nan
12197;BME280;6161;43.014;25.840;2022-09-01T11:50:36;99252.84;;;32.97;nan
12197;BME280;6161;43.014;25.840;2022-09-01T11:55:38;99198.13;;;32.27;nan
12197;BME280;6161;43.014;25.840;2022-09-01T11:58:06;99244.88;;;32.38;nan
12197;BME280;6161;43.014;25.840;2022-09-01T12:00:37;99257.41;;;32.36;nan
12197;BME280;6161;43.014;25.840;2022-09-01T12:03:27;99258.00;;;32.33;nan
12197;BME280;6161;43.014;25.840;2022-09-01T12:06:09;99280.72;;;32.16;nan
12197;BME280;6161;43.014;25.840;2022-09-01T12:08:38;99243.44;;;32.22;nan
12197;BME280;6161;43.014;25.840;2022-09-01T12:11:29;99241.50;;;32.23;nan
12197;BME280;6161;43.014;25.840;2022-09-01T12:14:04;99245.84;;;32.29;nan
12197;BME280;6161;43.014;25.840;2022-09-01T12:16:32;99214.63;;;32.37;nan
12197;BME280;6161;43.014;25.840;2022-09-01T12:19:03;99249.69;;;32.33;nan
12197;BME280;6161;43.014;25.840;2022-09-01T12:21:38;99245.69;;;32.39;nan
12197;BME280;6161;43.014;25.840;2022-09-01T12:24:14;99245.47;;;32.54;nan
12197;BME280;6161;43.014;25.840;2022-09-01T12:26:41;99234.69;;;32.53;nan
12197;BME280;6161;43.014;25.840;2022-09-01T12:29:07;99251.72;;;32.65;nan
12197;BME280;6161;43.014;25.840;2022-09-01T12:31:34;99251.41;;;32.67;nan
12197;BME280;6161;43.014;25.840;2022-09-01T12:34:00;99224.69;;;32.71;nan
12197;BME280;6161;43.014;25.840;2022-09-01T12:36:33;99251.19;;;32.63;nan
12197;BME280;6161;43.014;25.840;2022-09-01T12:39:21;99230.78;;;32.35;nan
12197;BME280;6161;43.014;25.840;2022-09-01T12:42:10;99230.91;;;32.06;nan
12197;BME280;6161;43.014;25.840;2022-09-01T12:47:17;99257.13;;;31.70;nan
12197;BME280;6161;43.014;25.840;2022-09-01T12:52:25;99253.06;;;31.04;nan
12197;BME280;6161;43.014;25.840;2022-09-01T12:57:30;99236.34;;;30.41;nan
12197;BME280;6161;43.014;25.840;2022-09-01T13:00:17;99249.03;;;30.02;nan
12197;BME280;6161;43.014;25.840;2022-09-01T13:02:50;99235.94;;;29.48;nan
12197;BME280;6161;43.014;25.840;2022-09-01T13:05:28;99246.19;;;29.02;nan
12197;BME280;6161;43.014;25.840;2022-09-01T13:07:56;99247.59;;;28.63;nan
12197;BME280;6161;43.014;25.840;2022-09-01T13:10:24;99264.59;;;28.34;nan
12197;BME280;6161;43.014;25.840;2022-09-01T13:12:53;99257.94;;;28.10;nan
12197;BME280;6161;43.014;25.840;2022-09-01T13:15:19;99256.78;;;27.90;nan
12197;BME280;6161;43.014;25.840;2022-09-01T13:17:45;99245.66;;;27.75;nan
12197;BME280;6161;43.014;25.840;2022-09-01T13:20:11;99241.41;;;27.57;nan
12197;BME280;6161;43.014;25.840;2022-09-01T13:22:37;99233.13;;;27.52;nan
12197;BME280;6161;43.014;25.840;2022-09-01T13:25:04;99273.59;;;27.46;nan
12197;BME280;6161;43.014;25.840;2022-09-01T13:27:30;99286.25;;;27.42;nan
12197;BME280;6161;43.014;25.840;2022-09-01T13:29:55;99239.13;;;27.39;nan
12197;BME280;6161;43.014;25.840;2022-09-01T13:32:21;99290.34;;;27.40;nan
12197;BME280;6161;43.014;25.840;2022-09-01T13:34:51;99254.84;;;27.43;nan
12197;BME280;6161;43.014;25.840;2022-09-01T13:37:18;99286.81;;;27.44;nan
12197;BME280;6161;43.014;25.840;2022-09-01T13:39:44;99253.88;;;27.22;nan
12197;BME280;6161;43.014;25.840;2022-09-01T13:42:11;99280.41;;;27.34;nan
12197;BME280;6161;43.014;25.840;2022-09-01T13:44:37;99246.81;;;27.37;nan
12197;BME280;6161;43.014;25.840;2022-09-01T13:47:03;99299.00;;;27.54;nan
12197;BME280;6161;43.014;25.840;2022-09-01T13:49:28;99300.97;;;27.63;nan
12197;BME280;6161;43.014;25.840;2022-09-01T13:51:54;99307.63;;;27.73;nan
12197;BME280;6161;43.014;25.840;2022-09-01T13:54:19;99248.94;;;27.72;nan
12197;BME280;6161;43.014;25.840;2022-09-01T13:56:45;99298.09;;;27.85;nan
12197;BME280;6161;43.014;25.840;2022-09-01T13:59:11;99284.84;;;27.87;nan
12197;BME280;6161;43.014;25.840;2022-09-01T14:01:36;99311.38;;;27.94;nan
12197;BME280;6161;43.014;25.840;2022-09-01T14:04:02;99304.78;;;28.05;nan
12197;BME280;6161;43.014;25.840;2022-09-01T14:06:31;99315.84;;;28.10;nan
12197;BME280;6161;43.014;25.840;2022-09-01T14:08:57;99308.91;;;28.02;nan
12197;BME280;6161;43.014;25.840;2022-09-01T14:11:23;99288.50;;;27.98;nan
12197;BME280;6161;43.014;25.840;2022-09-01T14:13:50;99324.63;;;28.02;nan
12197;BME280;6161;43.014;25.840;2022-09-01T14:16:16;99302.84;;;27.95;nan
12197;BME280;6161;43.014;25.840;2022-09-01T14:18:41;99320.19;;;27.90;nan
12197;BME280;6161;43.014;25.840;2022-09-01T14:21:14;99331.34;;;27.74;nan
12197;BME280;6161;43.014;25.840;2022-09-01T14:23:44;99335.16;;;27.67;nan
12197;BME280;6161;43.014;25.840;2022-09-01T14:26:14;99329.66;;;27.67;nan
12197;BME280;6161;43.014;25.840;2022-09-01T14:31:15;99302.03;;;27.57;nan
12197;BME280;6161;43.014;25.840;2022-09-01T14:33:42;99334.59;;;27.60;nan
12197;BME280;6161;43.014;25.840;2022-09-01T14:36:17;99325.75;;;27.58;nan
12197;BME280;6161;43.014;25.840;2022-09-01T14:38:43;99353.34;;;27.63;nan
12197;BME280;6161;43.014;25.840;2022-09-01T14:41:12;99361.56;;;27.58;nan
12197;BME280;6161;43.014;25.840;2022-09-01T14:46:08;99352.78;;;27.61;nan
12197;BME280;6161;43.014;25.840;2022-09-01T14:48:35;99353.91;;;27.65;nan
12197;BME280;6161;43.014;25.840;2022-09-01T14:51:02;99359.72;;;27.69;nan
12197;BME280;6161;43.014;25.840;2022-09-01T14:53:29;99347.84;;;27.68;nan
12197;BME280;6161;43.014;25.840;2022-09-01T14:55:56;99411.28;;;27.74;nan
12197;BME280;6161;43.014;25.840;2022-09-01T14:58:22;99358.34;;;27.71;nan
12197;BME280;6161;43.014;25.840;2022-09-01T15:00:47;99321.94;;;27.69;nan
12197;BME280;6161;43.014;25.840;2022-09-01T15:03:13;99363.00;;;27.66;nan
12197;BME280;6161;43.014;25.840;2022-09-01T15:05:38;99365.44;;;27.62;nan
12197;BME280;6161;43.014;25.840;2022-09-01T15:08:04;99362.66;;;27.57;nan
12197;BME280;6161;43.014;25.840;2022-09-01T15:10:30;99327.72;;;27.63;nan
12197;BME280;6161;43.014;25.840;2022-09-01T15:12:57;99329.91;;;27.61;nan
12197;BME280;6161;43.014;25.840;2022-09-01T15:15:24;99306.19;;;27.60;nan
12197;BME280;6161;43.014;25.840;2022-09-01T15:17:50;99327.41;;;27.59;nan
12197;BME280;6161;43.014;25.840;2022-09-01T15:20:16;99362.53;;;27.42;nan
12197;BME280;6161;43.014;25.840;2022-09-01T15:23:01;99328.41;;;27.43;nan
12197;BME280;6161;43.014;25.840;2022-09-01T15:25:26;99327.06;;;27.45;nan
12197;BME280;6161;43.014;25.840;2022-09-01T15:27:52;99340.78;;;27.40;nan
12197;BME280;6161;43.014;25.840;2022-09-01T15:30:17;99309.84;;;27.28;nan
12197;BME280;6161;43.014;25.840;2022-09-01T15:32:46;99350.78;;;27.19;nan
12197;BME280;6161;43.014;25.840;2022-09-01T15:35:13;99337.88;;;27.25;nan
12197;BME280;6161;43.014;25.840;2022-09-01T15:37:39;99338.97;;;27.19;nan
12197;BME280;6161;43.014;25.840;2022-09-01T15:40:06;99336.13;;;27.14;nan
12197;BME280;6161;43.014;25.840;2022-09-01T15:42:33;99318.78;;;27.13;nan
12197;BME280;6161;43.014;25.840;2022-09-01T15:45:00;99306.66;;;27.14;nan
12197;BME280;6161;43.014;25.840;2022-09-01T15:47:25;99325.94;;;27.14;nan
12197;BME280;6161;43.014;25.840;2022-09-01T15:49:51;99319.03;;;27.12;nan
12197;BME280;6161;43.014;25.840;2022-09-01T15:52:16;99324.75;;;27.05;nan